This is the latest recevied weather packets stored in our database for station/object WX5HOT. If no packets are shown the sender has not sent any weather packets the latest 10 day(s).
| Time | Temp. | Humidity | Pressure | Rain* | Wind** | Luminosity | Snow |
|---|---|---|---|---|---|---|---|
| 1777562173 | 12.22° C | 70% | 1066.9 hPa | 0 mm | - | 532 W/m² | - |
| 1777561871 | 12.22° C | 71% | 1066.8 hPa | 0 mm | - | 428 W/m² | - |
| 1777561568 | 12.22° C | 70% | 1067 hPa | 0 mm | - | 455 W/m² | - |
| 1777561263 | 12.22° C | 70% | 1067.2 hPa | 0 mm | - | 351 W/m² | - |
| 1777560963 | 12.22° C | 70% | 1067.2 hPa | 0 mm | - | 369 W/m² | - |
| 1777560659 | 12.78° C | 70% | 1066.8 hPa | 0 mm | - | 332 W/m² | - |
| 1777560357 | 12.22° C | 71% | 1067.1 hPa | 0 mm | - | 594 W/m² | - |
| 1777560055 | 12.22° C | 74% | 1067 hPa | 0 mm | - | 517 W/m² | - |
| 1777559750 | 12.22° C | 72% | 1066.8 hPa | 0 mm | - | 576 W/m² | - |
| 1777559447 | 11.67° C | 73% | 1066.9 hPa | 0 mm | - | 470 W/m² | - |
| 1777559144 | 12.22° C | 72% | 1067 hPa | 0 mm | - | 256 W/m² | - |
| 1777558844 | 11.67° C | 74% | 1066.8 hPa | 0 mm | - | 533 W/m² | - |
| 1777558540 | 11.67° C | 74% | 1067 hPa | 0 mm | - | 454 W/m² | - |
| 1777558237 | 11.67° C | 74% | 1066.9 hPa | 0 mm | - | 459 W/m² | - |
| 1777557932 | 11.67° C | 74% | 1066.9 hPa | 0 mm | - | 354 W/m² | - |
| 1777557630 | 11.67° C | 73% | 1067 hPa | 0 mm | - | 383 W/m² | - |
| 1777557326 | 11.11° C | 74% | 1067.1 hPa | 0 mm | - | 344 W/m² | - |
| 1777557022 | 11.11° C | 75% | 1067.2 hPa | 0 mm | - | 307 W/m² | - |
| 1777556718 | 10.56° C | 79% | 1067.1 hPa | 0 mm | - | 301 W/m² | - |
| 1777556415 | 10.56° C | 78% | 1066.9 hPa | 0 mm | - | 115 W/m² | - |
| 1777556115 | 10.56° C | 78% | 1066.5 hPa | 0 mm | - | 147 W/m² | - |
| 1777555810 | 10.56° C | 78% | 1066.7 hPa | 0 mm | - | 176 W/m² | - |
| 1777555506 | 10.56° C | 79% | 1066.6 hPa | 0 mm | - | 177 W/m² | - |
| 1777555202 | 10.56° C | 80% | 1066.4 hPa | 0 mm | - | 181 W/m² | - |
| 1777554900 | 10.56° C | 79% | 1066.6 hPa | 0 mm | - | 189 W/m² | - |
* Rain latest hour (hover to see other rain measurements)
** Current wind speed in m/s (hover to see current wind gust speed)